Time,TemperatureF,DewpointF,PressureIn,WindDirection,WindDirectionDegrees,WindSpeedMPH,WindSpeedGustMPH,Humidity,HourlyPrecipIn,Conditions,Clouds,dailyrainin,SoftwareType,DateUTC
2013-02-20 00:00:00,7.0,-1.0,30.15,WSW,252,0.0,1.0,71,0.00,,,0.01,weatherlink.com 1.10,2013-02-20 07:00:00,
2013-02-20 00:15:00,6.9,0.0,30.14,WSW,256,0.0,1.0,72,0.00,,,0.00,weatherlink.com 1.10,2013-02-20 07:15:00,
2013-02-20 00:30:00,7.3,0.0,30.14,WSW,255,0.0,2.0,72,0.00,,,0.00,weatherlink.com 1.10,2013-02-20 07:30:00,
2013-02-20 00:45:00,6.5,-1.0,30.14,WSW,257,0.0,1.0,72,0.00,,,0.00,weatherlink.com 1.10,2013-02-20 07:45:00,
2013-02-20 01:00:00,6.1,0.0,30.14,WSW,257,0.0,1.0,75,0.00,,,0.00,weatherlink.com 1.10,2013-02-20 08:00:00,
2013-02-20 01:15:00,5.6,-1.0,30.13,WSW,257,0.0,1.0,74,0.00,,,0.00,weatherlink.com 1.10,2013-02-20 08:15:00,
2013-02-20 01:30:00,5.0,-1.0,30.12,WSW,255,0.0,1.0,75,0.00,,,0.00,weatherlink.com 1.10,2013-02-20 08:30:00,
2013-02-20 01:45:00,5.1,-2.0,30.11,WSW,255,0.0,1.0,74,0.00,,,0.00,weatherlink.com 1.10,2013-02-20 08:45:00,
2013-02-20 02:00:00,5.7,-1.0,30.11,WSW,251,1.0,1.0,75,0.00,,,0.00,weatherlink.com 1.10,2013-02-20 09:00:00,
2013-02-20 02:15:00,5.5,-1.0,30.09,WSW,256,0.0,1.0,74,0.00,,,0.00,weatherlink.com 1.10,2013-02-20 09:15:00,
2013-02-20 02:32:00,6.0,0.0,30.08,WSW,248,1.0,1.0,75,0.00,,,0.00,weatherlink.com 1.10,2013-02-20 09:32:00,
2013-02-20 02:46:00,5.9,0.0,30.07,WSW,247,1.0,2.0,75,0.00,,,0.00,weatherlink.com 1.10,2013-02-20 09:46:00,
2013-02-20 03:00:00,6.2,0.0,30.06,West,259,0.0,1.0,75,0.00,,,0.00,weatherlink.com 1.10,2013-02-20 10:00:00,
2013-02-20 03:15:00,5.9,0.0,30.05,WSW,252,0.0,1.0,76,0.00,,,0.00,weatherlink.com 1.10,2013-02-20 10:15:00,
2013-02-20 03:31:00,6.1,0.0,30.04,WSW,239,0.0,1.0,75,0.00,,,0.00,weatherlink.com 1.10,2013-02-20 10:31:00,
2013-02-20 03:46:00,5.8,0.0,30.03,WSW,250,0.0,1.0,77,0.00,,,0.00,weatherlink.com 1.10,2013-02-20 10:46:00,
2013-02-20 04:01:00,5.8,0.0,30.03,WSW,250,0.0,1.0,77,0.00,,,0.00,weatherlink.com 1.10,2013-02-20 11:01:00,
2013-02-20 04:16:00,5.6,0.0,30.02,WSW,258,0.0,1.0,77,0.00,,,0.00,weatherlink.com 1.10,2013-02-20 11:16:00,
2013-02-20 04:31:00,5.9,0.0,30.03,West,263,0.0,1.0,78,0.00,,,0.00,weatherlink.com 1.10,2013-02-20 11:31:00,
2013-02-20 04:46:00,5.9,0.0,30.02,WSW,254,0.0,1.0,78,0.00,,,0.00,weatherlink.com 1.10,2013-02-20 11:46:00,
2013-02-20 05:01:00,5.7,0.0,30.02,West,264,0.0,1.0,78,0.00,,,0.00,weatherlink.com 1.10,2013-02-20 12:01:00,
2013-02-20 05:16:00,6.1,1.0,30.01,WSW,255,0.0,1.0,79,0.00,,,0.00,weatherlink.com 1.10,2013-02-20 12:16:00,
2013-02-20 05:31:00,7.1,2.0,30.01,WSW,253,0.0,1.0,79,0.00,,,0.00,weatherlink.com 1.10,2013-02-20 12:31:00,
2013-02-20 05:46:00,7.0,2.0,30.00,West,264,0.0,1.0,79,0.00,,,0.00,weatherlink.com 1.10,2013-02-20 12:46:00,
2013-02-20 06:01:00,7.0,2.0,30.00,West,265,0.0,1.0,79,0.00,,,0.00,weatherlink.com 1.10,2013-02-20 13:01:00,
2013-02-20 06:16:00,6.9,2.0,29.99,WSW,257,0.0,1.0,79,0.00,,,0.00,weatherlink.com 1.10,2013-02-20 13:16:00,
2013-02-20 06:31:00,6.9,2.0,29.99,WSW,256,0.0,1.0,80,0.00,,,0.00,weatherlink.com 1.10,2013-02-20 13:31:00,
2013-02-20 06:46:00,6.1,1.0,29.98,WSW,256,0.0,1.0,80,0.00,,,0.00,weatherlink.com 1.10,2013-02-20 13:46:00,
2013-02-20 07:17:00,6.3,2.0,29.97,West,262,0.0,1.0,81,0.00,,,0.00,weatherlink.com 1.10,2013-02-20 14:17:00,
2013-02-20 07:32:00,6.9,2.0,29.97,West,259,0.0,1.0,80,0.00,,,0.00,weatherlink.com 1.10,2013-02-20 14:32:00,
2013-02-20 07:47:00,8.2,3.0,29.96,West,259,0.0,1.0,80,0.00,,,0.00,weatherlink.com 1.10,2013-02-20 14:47:00,
2013-02-20 08:02:00,10.6,4.0,29.95,West,261,1.0,1.0,76,0.00,,,0.00,weatherlink.com 1.10,2013-02-20 15:02:00,
2013-02-20 08:17:00,14.3,7.0,29.93,West,260,0.0,1.0,73,0.00,,,0.00,weatherlink.com 1.10,2013-02-20 15:17:00,
2013-02-20 08:32:00,17.4,9.0,29.91,WNW,285,0.0,1.0,69,0.00,,,0.00,weatherlink.com 1.10,2013-02-20 15:32:00,
2013-02-20 08:47:00,19.6,10.0,29.90,WNW,285,0.0,0.0,65,0.00,,,0.00,weatherlink.com 1.10,2013-02-20 15:47:00,
2013-02-20 09:02:00,22.8,11.0,29.89,WNW,285,0.0,1.0,60,0.00,,,0.00,weatherlink.com 1.10,2013-02-20 16:02:00,
2013-02-20 09:17:00,24.1,11.0,29.87,WNW,283,0.0,1.0,57,0.00,,,0.00,weatherlink.com 1.10,2013-02-20 16:17:00,
2013-02-20 09:32:00,28.0,12.0,29.85,WNW,283,0.0,1.0,51,0.00,,,0.00,weatherlink.com 1.10,2013-02-20 16:32:00,
2013-02-20 09:47:00,30.7,13.0,29.83,East,86,1.0,3.0,47,0.00,,,0.00,weatherlink.com 1.10,2013-02-20 16:47:00,
2013-02-20 10:02:00,32.7,10.0,29.82,East,89,4.0,4.0,38,0.00,,,0.00,weatherlink.com 1.10,2013-02-20 17:02:00,
2013-02-20 10:18:00,31.6,10.0,29.80,ESE,115,1.0,3.0,41,0.00,,,0.00,weatherlink.com 1.10,2013-02-20 17:18:00,
2013-02-20 10:33:00,30.8,9.0,29.80,ESE,104,0.0,3.0,40,0.00,,,0.00,weatherlink.com 1.10,2013-02-20 17:33:00,
2013-02-20 10:48:00,30.8,8.0,29.78,West,277,6.0,6.0,39,0.00,,,0.00,weatherlink.com 1.10,2013-02-20 17:48:00,
2013-02-20 11:03:00,30.8,8.0,29.79,WSW,254,0.0,5.0,39,0.00,,,0.00,weatherlink.com 1.10,2013-02-20 18:03:00,
2013-02-20 11:18:00,31.0,10.0,29.77,WSW,251,4.0,5.0,41,0.00,,,0.00,weatherlink.com 1.10,2013-02-20 18:18:00,
2013-02-20 11:48:00,32.1,8.0,29.74,East,91,0.0,2.0,37,0.00,,,0.00,weatherlink.com 1.10,2013-02-20 18:48:00,
2013-02-20 12:03:00,31.6,10.0,29.72,ESE,105,1.0,2.0,41,0.00,,,0.00,weatherlink.com 1.10,2013-02-20 19:03:00,
2013-02-20 12:19:00,30.3,11.0,29.70,East,90,0.0,4.0,44,0.00,,,0.00,weatherlink.com 1.10,2013-02-20 19:19:00,
2013-02-20 12:34:00,31.1,10.0,29.69,NW,312,0.0,3.0,42,0.00,,,0.00,weatherlink.com 1.10,2013-02-20 19:34:00,
2013-02-20 12:49:00,31.8,12.0,29.67,SE,125,0.0,4.0,44,0.00,,,0.00,weatherlink.com 1.10,2013-02-20 19:49:00,
2013-02-20 13:03:00,31.7,12.0,29.66,ESE,120,0.0,1.0,44,0.00,,,0.00,weatherlink.com 1.10,2013-02-20 20:03:00,
2013-02-20 13:18:00,31.8,11.0,29.64,WSW,250,1.0,4.0,43,0.00,,,0.00,weatherlink.com 1.10,2013-02-20 20:18:00,
2013-02-20 13:49:00,31.0,11.0,29.64,WNW,296,1.0,3.0,44,0.00,,,0.00,weatherlink.com 1.10,2013-02-20 20:49:00,
2013-02-20 14:04:00,29.7,13.0,29.63,West,277,0.0,11.0,50,0.00,,,0.00,weatherlink.com 1.10,2013-02-20 21:04:00,
2013-02-20 14:19:00,29.4,14.0,29.64,SSW,193,1.0,3.0,53,0.00,,,0.00,weatherlink.com 1.10,2013-02-20 21:19:00,
2013-02-20 14:34:00,29.7,15.0,29.63,East,91,0.0,3.0,55,0.00,,,0.00,weatherlink.com 1.10,2013-02-20 21:34:00,
2013-02-20 14:49:00,29.2,18.0,29.63,ESE,102,1.0,2.0,62,0.00,,,0.00,weatherlink.com 1.10,2013-02-20 21:49:00,
2013-02-20 15:04:00,29.4,16.0,29.63,East,98,0.0,3.0,57,0.00,,,0.00,weatherlink.com 1.10,2013-02-20 22:04:00,
2013-02-20 15:19:00,30.6,13.0,29.62,West,262,0.0,5.0,49,0.00,,,0.00,weatherlink.com 1.10,2013-02-20 22:19:00,
2013-02-20 15:34:00,30.9,12.0,29.62,SW,217,1.0,3.0,46,0.00,,,0.00,weatherlink.com 1.10,2013-02-20 22:34:00,
2013-02-20 15:50:00,30.6,12.0,29.62,NNE,32,1.0,3.0,46,0.00,,,0.00,weatherlink.com 1.10,2013-02-20 22:50:00,
2013-02-20 16:04:00,29.6,16.0,29.62,SE,124,0.0,7.0,58,0.00,,,0.00,weatherlink.com 1.10,2013-02-20 23:04:00,
2013-02-20 16:19:00,28.3,17.0,29.63,East,96,2.0,7.0,63,0.00,,,0.00,weatherlink.com 1.10,2013-02-20 23:19:00,
2013-02-20 16:34:00,27.3,19.0,29.63,ESE,112,1.0,6.0,70,0.00,,,0.00,weatherlink.com 1.10,2013-02-20 23:34:00,
2013-02-20 16:50:00,25.2,21.0,29.63,ESE,110,0.0,6.0,83,0.00,,,0.00,weatherlink.com 1.10,2013-02-20 23:50:00,
2013-02-20 17:05:00,24.2,21.0,29.63,ESE,118,1.0,3.0,87,0.00,,,0.00,weatherlink.com 1.10,2013-02-21 00:05:00,
2013-02-20 17:20:00,22.8,19.0,29.65,ESE,115,0.0,8.0,84,0.00,,,0.00,weatherlink.com 1.10,2013-02-21 00:20:00,
2013-02-20 17:35:00,21.6,18.0,29.66,ESE,113,0.0,8.0,85,0.00,,,0.00,weatherlink.com 1.10,2013-02-21 00:35:00,
2013-02-20 17:50:00,21.0,18.0,29.67,ESE,108,0.0,4.0,87,0.00,,,0.00,weatherlink.com 1.10,2013-02-21 00:50:00,
2013-02-20 18:05:00,20.7,18.0,29.68,East,93,0.0,4.0,88,0.00,,,0.00,weatherlink.com 1.10,2013-02-21 01:05:00,
2013-02-20 18:20:00,20.6,18.0,29.69,ESE,102,1.0,2.0,88,0.00,,,0.00,weatherlink.com 1.10,2013-02-21 01:20:00,
2013-02-20 18:35:00,20.6,18.0,29.70,East,87,0.0,4.0,88,0.00,,,0.00,weatherlink.com 1.10,2013-02-21 01:35:00,
2013-02-20 18:50:00,20.6,18.0,29.70,SSE,167,0.0,1.0,88,0.00,,,0.00,weatherlink.com 1.10,2013-02-21 01:50:00,
2013-02-20 19:05:00,20.6,18.0,29.70,SSE,153,0.0,1.0,88,0.00,,,0.00,weatherlink.com 1.10,2013-02-21 02:05:00,
2013-02-20 19:20:00,20.6,17.0,29.71,East,90,0.0,3.0,87,0.00,,,0.00,weatherlink.com 1.10,2013-02-21 02:20:00,
2013-02-20 19:35:00,20.5,17.0,29.71,SE,127,0.0,2.0,87,0.00,,,0.00,weatherlink.com 1.10,2013-02-21 02:35:00,
2013-02-20 19:50:00,20.4,17.0,29.71,SSW,211,0.0,2.0,86,0.00,,,0.00,weatherlink.com 1.10,2013-02-21 02:50:00,
2013-02-20 20:05:00,20.1,17.0,29.71,WNW,290,0.0,4.0,86,0.00,,,0.00,weatherlink.com 1.10,2013-02-21 03:05:00,
2013-02-20 20:21:00,20.0,17.0,29.71,ESE,114,0.0,2.0,86,0.00,,,0.00,weatherlink.com 1.10,2013-02-21 03:21:00,
2013-02-20 20:36:00,19.9,16.0,29.71,SE,143,0.0,2.0,86,0.00,,,0.00,weatherlink.com 1.10,2013-02-21 03:36:00,
2013-02-20 20:51:00,19.8,17.0,29.72,ESE,113,0.0,3.0,87,0.00,,,0.00,weatherlink.com 1.10,2013-02-21 03:51:00,
2013-02-20 21:06:00,19.8,16.0,29.72,SE,141,0.0,2.0,86,0.00,,,0.00,weatherlink.com 1.10,2013-02-21 04:06:00,
2013-02-20 21:21:00,19.7,16.0,29.72,ESE,108,0.0,3.0,86,0.00,,,0.00,weatherlink.com 1.10,2013-02-21 04:21:00,
2013-02-20 21:36:00,19.6,16.0,29.72,SW,219,0.0,3.0,86,0.00,,,0.00,weatherlink.com 1.10,2013-02-21 04:36:00,
2013-02-20 21:51:00,19.5,16.0,29.73,ESE,111,1.0,3.0,87,0.00,,,0.00,weatherlink.com 1.10,2013-02-21 04:51:00,
2013-02-20 22:06:00,19.4,16.0,29.73,SE,133,0.0,4.0,87,0.00,,,0.00,weatherlink.com 1.10,2013-02-21 05:06:00,
2013-02-20 22:21:00,19.4,16.0,29.73,ESE,105,0.0,2.0,87,0.00,,,0.00,weatherlink.com 1.10,2013-02-21 05:21:00,
2013-02-20 22:36:00,19.4,16.0,29.73,ESE,109,0.0,2.0,87,0.00,,,0.00,weatherlink.com 1.10,2013-02-21 05:36:00,
2013-02-20 22:51:00,19.4,16.0,29.72,East,89,2.0,2.0,87,0.00,,,0.00,weatherlink.com 1.10,2013-02-21 05:51:00,
2013-02-20 23:06:00,19.3,16.0,29.72,East,98,0.0,2.0,87,0.00,,,0.00,weatherlink.com 1.10,2013-02-21 06:06:00,
2013-02-20 23:21:00,19.3,16.0,29.72,ESE,104,1.0,1.0,87,0.00,,,0.00,weatherlink.com 1.10,2013-02-21 06:21:00,
2013-02-20 23:36:00,19.2,16.0,29.72,NW,309,0.0,1.0,87,0.00,,,0.00,weatherlink.com 1.10,2013-02-21 06:36:00,
2013-02-20 23:51:00,19.1,16.0,29.71,ESE,122,0.0,2.0,87,0.00,,,0.00,weatherlink.com 1.10,2013-02-21 06:51:00,